sensor_id;sensor_type;location;lat;lon;timestamp;P1;durP1;ratioP1;P2;durP2;ratioP2
45802;SDS011;31504;51.716;9.184;2022-10-16T00:00:03;57.35;;;50.42;;
45802;SDS011;31504;51.716;9.184;2022-10-16T00:03:04;52.85;;;47.13;;
45802;SDS011;31504;51.716;9.184;2022-10-16T00:06:05;54.03;;;48.22;;
45802;SDS011;31504;51.716;9.184;2022-10-16T00:09:06;50.85;;;45.45;;
45802;SDS011;31504;51.716;9.184;2022-10-16T00:12:07;50.17;;;44.65;;
45802;SDS011;31504;51.716;9.184;2022-10-16T00:15:07;49.95;;;44.40;;
45802;SDS011;31504;51.716;9.184;2022-10-16T00:18:09;48.88;;;43.58;;
45802;SDS011;31504;51.716;9.184;2022-10-16T00:21:11;51.00;;;45.42;;
45802;SDS011;31504;51.716;9.184;2022-10-16T00:24:20;48.85;;;43.53;;
45802;SDS011;31504;51.716;9.184;2022-10-16T00:27:20;45.58;;;40.67;;
45802;SDS011;31504;51.716;9.184;2022-10-16T00:30:21;46.70;;;41.40;;
45802;SDS011;31504;51.716;9.184;2022-10-16T00:33:21;45.00;;;39.92;;
45802;SDS011;31504;51.716;9.184;2022-10-16T00:36:23;44.15;;;38.47;;
45802;SDS011;31504;51.716;9.184;2022-10-16T00:39:25;42.50;;;38.03;;
45802;SDS011;31504;51.716;9.184;2022-10-16T00:42:25;42.75;;;38.03;;
45802;SDS011;31504;51.716;9.184;2022-10-16T00:45:26;43.92;;;38.92;;
45802;SDS011;31504;51.716;9.184;2022-10-16T00:48:26;41.78;;;37.08;;
45802;SDS011;31504;51.716;9.184;2022-10-16T00:51:32;40.63;;;35.83;;
45802;SDS011;31504;51.716;9.184;2022-10-16T00:54:35;37.85;;;33.78;;
45802;SDS011;31504;51.716;9.184;2022-10-16T00:57:35;38.30;;;34.13;;
45802;SDS011;31504;51.716;9.184;2022-10-16T01:00:37;37.67;;;33.65;;
45802;SDS011;31504;51.716;9.184;2022-10-16T01:03:37;37.20;;;32.80;;
45802;SDS011;31504;51.716;9.184;2022-10-16T01:19:40;32.53;;;28.40;;
45802;SDS011;31504;51.716;9.184;2022-10-16T01:29:21;31.77;;;28.38;;
45802;SDS011;31504;51.716;9.184;2022-10-16T01:35:38;30.40;;;27.20;;
45802;SDS011;31504;51.716;9.184;2022-10-16T01:38:43;28.65;;;25.60;;
45802;SDS011;31504;51.716;9.184;2022-10-16T01:41:47;28.95;;;25.92;;
45802;SDS011;31504;51.716;9.184;2022-10-16T01:44:53;28.10;;;24.85;;
45802;SDS011;31504;51.716;9.184;2022-10-16T01:47:56;27.02;;;24.05;;
45802;SDS011;31504;51.716;9.184;2022-10-16T01:51:02;26.35;;;23.55;;
45802;SDS011;31504;51.716;9.184;2022-10-16T01:57:08;24.95;;;22.25;;
45802;SDS011;31504;51.716;9.184;2022-10-16T02:00:10;25.00;;;22.33;;
45802;SDS011;31504;51.716;9.184;2022-10-16T02:03:14;24.45;;;21.85;;
45802;SDS011;31504;51.716;9.184;2022-10-16T02:06:18;23.98;;;21.40;;
45802;SDS011;31504;51.716;9.184;2022-10-16T02:09:18;23.83;;;21.35;;
45802;SDS011;31504;51.716;9.184;2022-10-16T02:12:24;22.13;;;19.83;;
45802;SDS011;31504;51.716;9.184;2022-10-16T02:15:27;23.42;;;20.92;;
45802;SDS011;31504;51.716;9.184;2022-10-16T02:18:28;21.25;;;18.92;;
45802;SDS011;31504;51.716;9.184;2022-10-16T02:21:43;21.17;;;18.98;;
45802;SDS011;31504;51.716;9.184;2022-10-16T02:24:57;22.40;;;19.25;;
45802;SDS011;31504;51.716;9.184;2022-10-16T02:28:37;21.60;;;19.30;;
45802;SDS011;31504;51.716;9.184;2022-10-16T02:31:35;19.95;;;17.88;;
45802;SDS011;31504;51.716;9.184;2022-10-16T02:34:38;19.95;;;17.13;;
45802;SDS011;31504;51.716;9.184;2022-10-16T02:37:39;17.73;;;15.93;;
45802;SDS011;31504;51.716;9.184;2022-10-16T02:40:41;19.90;;;17.40;;
45802;SDS011;31504;51.716;9.184;2022-10-16T02:43:42;17.70;;;15.90;;
45802;SDS011;31504;51.716;9.184;2022-10-16T02:46:43;17.50;;;15.68;;
45802;SDS011;31504;51.716;9.184;2022-10-16T02:49:43;17.52;;;15.73;;
45802;SDS011;31504;51.716;9.184;2022-10-16T02:52:44;16.77;;;15.02;;
45802;SDS011;31504;51.716;9.184;2022-10-16T02:55:44;16.23;;;14.50;;
45802;SDS011;31504;51.716;9.184;2022-10-16T02:58:45;15.88;;;14.27;;
45802;SDS011;31504;51.716;9.184;2022-10-16T03:01:45;16.20;;;14.50;;
45802;SDS011;31504;51.716;9.184;2022-10-16T03:04:46;15.48;;;13.88;;
45802;SDS011;31504;51.716;9.184;2022-10-16T03:07:46;15.18;;;13.57;;
45802;SDS011;31504;51.716;9.184;2022-10-16T03:10:47;16.17;;;13.73;;
45802;SDS011;31504;51.716;9.184;2022-10-16T03:13:47;16.35;;;13.68;;
45802;SDS011;31504;51.716;9.184;2022-10-16T03:16:48;15.32;;;13.57;;
45802;SDS011;31504;51.716;9.184;2022-10-16T03:19:48;14.18;;;12.68;;
45802;SDS011;31504;51.716;9.184;2022-10-16T03:22:49;13.30;;;11.90;;
45802;SDS011;31504;51.716;9.184;2022-10-16T03:25:49;13.90;;;12.45;;
45802;SDS011;31504;51.716;9.184;2022-10-16T03:28:50;13.15;;;11.85;;
45802;SDS011;31504;51.716;9.184;2022-10-16T03:31:50;13.02;;;11.50;;
45802;SDS011;31504;51.716;9.184;2022-10-16T03:34:51;13.20;;;11.80;;
45802;SDS011;31504;51.716;9.184;2022-10-16T03:37:54;12.95;;;11.65;;
45802;SDS011;31504;51.716;9.184;2022-10-16T03:40:54;13.25;;;11.35;;
45802;SDS011;31504;51.716;9.184;2022-10-16T03:43:55;13.13;;;11.68;;
45802;SDS011;31504;51.716;9.184;2022-10-16T03:46:55;11.73;;;10.48;;
45802;SDS011;31504;51.716;9.184;2022-10-16T03:49:56;11.63;;;10.25;;
45802;SDS011;31504;51.716;9.184;2022-10-16T03:52:56;11.75;;;10.52;;
45802;SDS011;31504;51.716;9.184;2022-10-16T03:55:57;11.80;;;10.48;;
45802;SDS011;31504;51.716;9.184;2022-10-16T03:58:58;12.25;;;10.18;;
45802;SDS011;31504;51.716;9.184;2022-10-16T04:01:58;11.75;;;10.55;;
45802;SDS011;31504;51.716;9.184;2022-10-16T04:04:59;10.57;;;9.50;;
45802;SDS011;31504;51.716;9.184;2022-10-16T04:07:59;10.57;;;9.57;;
45802;SDS011;31504;51.716;9.184;2022-10-16T04:11:00;10.00;;;9.02;;
45802;SDS011;31504;51.716;9.184;2022-10-16T04:14:01;10.07;;;9.07;;
45802;SDS011;31504;51.716;9.184;2022-10-16T04:17:01;12.63;;;10.25;;
45802;SDS011;31504;51.716;9.184;2022-10-16T04:20:02;9.27;;;8.38;;
45802;SDS011;31504;51.716;9.184;2022-10-16T04:23:03;9.25;;;8.25;;
45802;SDS011;31504;51.716;9.184;2022-10-16T04:26:04;10.00;;;8.13;;
45802;SDS011;31504;51.716;9.184;2022-10-16T04:29:05;9.13;;;8.23;;
45802;SDS011;31504;51.716;9.184;2022-10-16T04:32:07;7.90;;;7.15;;
45802;SDS011;31504;51.716;9.184;2022-10-16T04:35:08;8.65;;;7.78;;
45802;SDS011;31504;51.716;9.184;2022-10-16T04:38:09;8.65;;;7.75;;
45802;SDS011;31504;51.716;9.184;2022-10-16T04:41:10;8.80;;;7.90;;
45802;SDS011;31504;51.716;9.184;2022-10-16T04:44:10;9.40;;;7.43;;
45802;SDS011;31504;51.716;9.184;2022-10-16T04:47:11;7.95;;;7.15;;
45802;SDS011;31504;51.716;9.184;2022-10-16T04:50:12;7.40;;;6.72;;
45802;SDS011;31504;51.716;9.184;2022-10-16T04:53:12;7.32;;;6.63;;
45802;SDS011;31504;51.716;9.184;2022-10-16T04:56:13;7.10;;;6.40;;
45802;SDS011;31504;51.716;9.184;2022-10-16T04:59:15;6.70;;;6.00;;
45802;SDS011;31504;51.716;9.184;2022-10-16T05:02:16;7.07;;;6.38;;
45802;SDS011;31504;51.716;9.184;2022-10-16T05:05:17;7.20;;;6.45;;
45802;SDS011;31504;51.716;9.184;2022-10-16T05:08:19;7.78;;;7.05;;
45802;SDS011;31504;51.716;9.184;2022-10-16T05:11:19;6.90;;;5.85;;
45802;SDS011;31504;51.716;9.184;2022-10-16T05:14:20;6.93;;;6.22;;
45802;SDS011;31504;51.716;9.184;2022-10-16T05:17:20;7.40;;;6.57;;
45802;SDS011;31504;51.716;9.184;2022-10-16T05:20:21;6.70;;;6.10;;
45802;SDS011;31504;51.716;9.184;2022-10-16T05:23:22;6.88;;;5.88;;
45802;SDS011;31504;51.716;9.184;2022-10-16T05:26:23;8.05;;;6.15;;
45802;SDS011;31504;51.716;9.184;2022-10-16T05:29:23;6.40;;;5.80;;
45802;SDS011;31504;51.716;9.184;2022-10-16T05:32:24;6.18;;;5.57;;
45802;SDS011;31504;51.716;9.184;2022-10-16T05:35:25;6.45;;;5.85;;
45802;SDS011;31504;51.716;9.184;2022-10-16T05:38:25;6.55;;;5.80;;
45802;SDS011;31504;51.716;9.184;2022-10-16T05:41:26;6.65;;;5.45;;
45802;SDS011;31504;51.716;9.184;2022-10-16T05:44:26;5.93;;;5.30;;
45802;SDS011;31504;51.716;9.184;2022-10-16T05:47:27;5.85;;;5.30;;
45802;SDS011;31504;51.716;9.184;2022-10-16T05:50:27;6.10;;;5.50;;
45802;SDS011;31504;51.716;9.184;2022-10-16T05:53:28;6.00;;;5.40;;
45802;SDS011;31504;51.716;9.184;2022-10-16T05:56:30;6.45;;;5.85;;
45802;SDS011;31504;51.716;9.184;2022-10-16T05:59:31;5.88;;;5.28;;
45802;SDS011;31504;51.716;9.184;2022-10-16T06:02:32;5.78;;;5.22;;
45802;SDS011;31504;51.716;9.184;2022-10-16T06:05:32;5.90;;;5.32;;
45802;SDS011;31504;51.716;9.184;2022-10-16T06:08:33;6.40;;;5.80;;
45802;SDS011;31504;51.716;9.184;2022-10-16T06:11:33;7.07;;;5.90;;
45802;SDS011;31504;51.716;9.184;2022-10-16T06:14:34;7.78;;;6.65;;
45802;SDS011;31504;51.716;9.184;2022-10-16T06:17:34;8.60;;;7.32;;
45802;SDS011;31504;51.716;9.184;2022-10-16T06:20:35;11.45;;;10.25;;
45802;SDS011;31504;51.716;9.184;2022-10-16T06:23:36;16.55;;;12.82;;
45802;SDS011;31504;51.716;9.184;2022-10-16T06:26:37;22.02;;;18.10;;
45802;SDS011;31504;51.716;9.184;2022-10-16T06:29:38;29.98;;;24.02;;
45802;SDS011;31504;51.716;9.184;2022-10-16T06:32:39;35.17;;;29.13;;
45802;SDS011;31504;51.716;9.184;2022-10-16T06:35:40;38.92;;;32.53;;
45802;SDS011;31504;51.716;9.184;2022-10-16T06:38:41;49.88;;;41.88;;
45802;SDS011;31504;51.716;9.184;2022-10-16T06:41:42;54.83;;;44.72;;
45802;SDS011;31504;51.716;9.184;2022-10-16T06:44:42;63.05;;;52.90;;
45802;SDS011;31504;51.716;9.184;2022-10-16T06:47:43;74.35;;;61.08;;
45802;SDS011;31504;51.716;9.184;2022-10-16T06:50:43;74.90;;;63.28;;
45802;SDS011;31504;51.716;9.184;2022-10-16T06:53:47;83.22;;;68.72;;
45802;SDS011;31504;51.716;9.184;2022-10-16T06:56:50;88.50;;;74.28;;
45802;SDS011;31504;51.716;9.184;2022-10-16T06:59:51;93.95;;;78.28;;
45802;SDS011;31504;51.716;9.184;2022-10-16T07:02:51;99.80;;;83.30;;
45802;SDS011;31504;51.716;9.184;2022-10-16T07:05:52;101.13;;;87.78;;
45802;SDS011;31504;51.716;9.184;2022-10-16T07:08:53;122.15;;;104.85;;
45802;SDS011;31504;51.716;9.184;2022-10-16T07:11:53;119.88;;;103.53;;
45802;SDS011;31504;51.716;9.184;2022-10-16T07:14:54;125.47;;;107.22;;
45802;SDS011;31504;51.716;9.184;2022-10-16T07:17:55;108.20;;;91.03;;
45802;SDS011;31504;51.716;9.184;2022-10-16T07:21:02;87.85;;;67.60;;
45802;SDS011;31504;51.716;9.184;2022-10-16T07:24:04;76.45;;;65.32;;
45802;SDS011;31504;51.716;9.184;2022-10-16T07:27:06;58.20;;;49.40;;
45802;SDS011;31504;51.716;9.184;2022-10-16T07:30:07;48.05;;;40.25;;
45802;SDS011;31504;51.716;9.184;2022-10-16T07:33:08;37.40;;;32.15;;
45802;SDS011;31504;51.716;9.184;2022-10-16T07:36:08;34.83;;;29.20;;
45802;SDS011;31504;51.716;9.184;2022-10-16T07:39:09;34.30;;;30.27;;
45802;SDS011;31504;51.716;9.184;2022-10-16T07:42:09;30.33;;;26.77;;
45802;SDS011;31504;51.716;9.184;2022-10-16T07:45:10;31.52;;;25.83;;
45802;SDS011;31504;51.716;9.184;2022-10-16T07:48:10;35.05;;;27.17;;
45802;SDS011;31504;51.716;9.184;2022-10-16T07:51:11;40.75;;;34.00;;
45802;SDS011;31504;51.716;9.184;2022-10-16T07:54:12;55.40;;;43.42;;
45802;SDS011;31504;51.716;9.184;2022-10-16T07:57:13;73.47;;;56.50;;
45802;SDS011;31504;51.716;9.184;2022-10-16T08:00:19;94.53;;;76.28;;
45802;SDS011;31504;51.716;9.184;2022-10-16T08:03:19;106.00;;;83.57;;
45802;SDS011;31504;51.716;9.184;2022-10-16T08:06:20;105.32;;;87.93;;
45802;SDS011;31504;51.716;9.184;2022-10-16T08:09:22;139.98;;;115.63;;
45802;SDS011;31504;51.716;9.184;2022-10-16T08:12:22;142.32;;;117.57;;
45802;SDS011;31504;51.716;9.184;2022-10-16T08:15:23;159.98;;;130.05;;
45802;SDS011;31504;51.716;9.184;2022-10-16T08:18:23;166.23;;;137.43;;
45802;SDS011;31504;51.716;9.184;2022-10-16T08:21:24;179.13;;;142.13;;
45802;SDS011;31504;51.716;9.184;2022-10-16T08:24:25;194.35;;;162.93;;
45802;SDS011;31504;51.716;9.184;2022-10-16T08:27:31;209.23;;;176.45;;
45802;SDS011;31504;51.716;9.184;2022-10-16T08:30:32;233.07;;;195.20;;
45802;SDS011;31504;51.716;9.184;2022-10-16T08:33:33;230.35;;;195.02;;
45802;SDS011;31504;51.716;9.184;2022-10-16T08:36:35;234.18;;;196.75;;
45802;SDS011;31504;51.716;9.184;2022-10-16T08:39:35;233.60;;;199.23;;
45802;SDS011;31504;51.716;9.184;2022-10-16T08:46:15;216.73;;;179.50;;
45802;SDS011;31504;51.716;9.184;2022-10-16T08:49:28;203.25;;;171.23;;
45802;SDS011;31504;51.716;9.184;2022-10-16T08:52:30;200.13;;;162.60;;
45802;SDS011;31504;51.716;9.184;2022-10-16T08:55:41;183.23;;;154.18;;
45802;SDS011;31504;51.716;9.184;2022-10-16T08:58:42;179.40;;;149.90;;
45802;SDS011;31504;51.716;9.184;2022-10-16T09:01:46;180.23;;;148.30;;
45802;SDS011;31504;51.716;9.184;2022-10-16T09:18:00;145.30;;;121.07;;
45802;SDS011;31504;51.716;9.184;2022-10-16T09:21:16;144.35;;;120.70;;
45802;SDS011;31504;51.716;9.184;2022-10-16T09:24:22;138.48;;;113.97;;
45802;SDS011;31504;51.716;9.184;2022-10-16T09:27:25;134.65;;;109.22;;
45802;SDS011;31504;51.716;9.184;2022-10-16T09:30:27;132.55;;;110.18;;
45802;SDS011;31504;51.716;9.184;2022-10-16T09:33:30;132.32;;;109.57;;
45802;SDS011;31504;51.716;9.184;2022-10-16T09:36:40;128.25;;;106.78;;
45802;SDS011;31504;51.716;9.184;2022-10-16T09:39:48;124.93;;;105.97;;
45802;SDS011;31504;51.716;9.184;2022-10-16T09:42:50;121.47;;;100.65;;
45802;SDS011;31504;51.716;9.184;2022-10-16T09:45:58;128.30;;;103.32;;
45802;SDS011;31504;51.716;9.184;2022-10-16T09:49:02;123.97;;;101.28;;
45802;SDS011;31504;51.716;9.184;2022-10-16T09:52:05;116.45;;;95.55;;
45802;SDS011;31504;51.716;9.184;2022-10-16T09:55:16;108.25;;;89.15;;
45802;SDS011;31504;51.716;9.184;2022-10-16T09:58:17;111.60;;;94.65;;
45802;SDS011;31504;51.716;9.184;2022-10-16T10:01:21;110.75;;;90.72;;
45802;SDS011;31504;51.716;9.184;2022-10-16T10:04:36;109.82;;;89.93;;
45802;SDS011;31504;51.716;9.184;2022-10-16T10:07:42;111.03;;;89.82;;
45802;SDS011;31504;51.716;9.184;2022-10-16T10:10:45;105.85;;;85.88;;
45802;SDS011;31504;51.716;9.184;2022-10-16T10:13:48;104.97;;;85.63;;
45802;SDS011;31504;51.716;9.184;2022-10-16T10:16:49;102.88;;;85.32;;
45802;SDS011;31504;51.716;9.184;2022-10-16T10:22:54;102.10;;;82.22;;
45802;SDS011;31504;51.716;9.184;2022-10-16T10:26:03;95.85;;;79.53;;
45802;SDS011;31504;51.716;9.184;2022-10-16T10:29:13;99.18;;;80.90;;
45802;SDS011;31504;51.716;9.184;2022-10-16T10:39:12;91.95;;;72.72;;
45802;SDS011;31504;51.716;9.184;2022-10-16T10:45:45;85.10;;;68.00;;
45802;SDS011;31504;51.716;9.184;2022-10-16T11:05:45;77.03;;;61.88;;
45802;SDS011;31504;51.716;9.184;2022-10-16T11:08:55;73.07;;;57.78;;
45802;SDS011;31504;51.716;9.184;2022-10-16T11:15:13;63.63;;;51.27;;
45802;SDS011;31504;51.716;9.184;2022-10-16T11:21:18;55.15;;;44.28;;
45802;SDS011;31504;51.716;9.184;2022-10-16T11:24:28;53.22;;;41.50;;
45802;SDS011;31504;51.716;9.184;2022-10-16T11:27:39;48.70;;;41.57;;
45802;SDS011;31504;51.716;9.184;2022-10-16T11:37:16;46.40;;;37.45;;
45802;SDS011;31504;51.716;9.184;2022-10-16T11:40:25;44.97;;;35.20;;
45802;SDS011;31504;51.716;9.184;2022-10-16T11:46:31;36.35;;;30.85;;
45802;SDS011;31504;51.716;9.184;2022-10-16T11:49:36;39.75;;;31.85;;
45802;SDS011;31504;51.716;9.184;2022-10-16T11:52:41;40.70;;;31.50;;
45802;SDS011;31504;51.716;9.184;2022-10-16T11:55:48;35.75;;;28.70;;
45802;SDS011;31504;51.716;9.184;2022-10-16T12:02:20;37.70;;;28.80;;
45802;SDS011;31504;51.716;9.184;2022-10-16T12:08:51;39.20;;;29.75;;
45802;SDS011;31504;51.716;9.184;2022-10-16T12:11:53;36.33;;;29.73;;
45802;SDS011;31504;51.716;9.184;2022-10-16T12:15:01;49.42;;;40.80;;
45802;SDS011;31504;51.716;9.184;2022-10-16T12:18:03;57.67;;;44.25;;
45802;SDS011;31504;51.716;9.184;2022-10-16T12:21:04;57.55;;;45.67;;
45802;SDS011;31504;51.716;9.184;2022-10-16T12:24:06;58.92;;;48.75;;
45802;SDS011;31504;51.716;9.184;2022-10-16T12:27:27;51.13;;;42.88;;
45802;SDS011;31504;51.716;9.184;2022-10-16T12:30:33;46.55;;;38.47;;
45802;SDS011;31504;51.716;9.184;2022-10-16T12:33:42;39.70;;;34.10;;
45802;SDS011;31504;51.716;9.184;2022-10-16T12:36:53;37.30;;;31.33;;
45802;SDS011;31504;51.716;9.184;2022-10-16T12:39:56;36.17;;;28.95;;
45802;SDS011;31504;51.716;9.184;2022-10-16T12:42:57;27.40;;;23.52;;
45802;SDS011;31504;51.716;9.184;2022-10-16T12:46:03;23.90;;;20.73;;
45802;SDS011;31504;51.716;9.184;2022-10-16T12:52:26;23.55;;;20.02;;
45802;SDS011;31504;51.716;9.184;2022-10-16T12:55:35;22.67;;;17.65;;
45802;SDS011;31504;51.716;9.184;2022-10-16T12:58:51;23.58;;;18.73;;
45802;SDS011;31504;51.716;9.184;2022-10-16T13:05:42;20.20;;;16.00;;
45802;SDS011;31504;51.716;9.184;2022-10-16T13:16:09;17.58;;;13.27;;
45802;SDS011;31504;51.716;9.184;2022-10-16T13:25:43;14.57;;;11.88;;
45802;SDS011;31504;51.716;9.184;2022-10-16T13:28:57;13.23;;;11.65;;
45802;SDS011;31504;51.716;9.184;2022-10-16T13:32:00;11.98;;;10.23;;
45802;SDS011;31504;51.716;9.184;2022-10-16T13:35:21;15.68;;;13.00;;
45802;SDS011;31504;51.716;9.184;2022-10-16T13:38:27;17.05;;;14.75;;
45802;SDS011;31504;51.716;9.184;2022-10-16T13:41:32;19.85;;;15.52;;
45802;SDS011;31504;51.716;9.184;2022-10-16T13:44:54;20.73;;;17.70;;
45802;SDS011;31504;51.716;9.184;2022-10-16T13:48:04;22.85;;;18.52;;
45802;SDS011;31504;51.716;9.184;2022-10-16T13:51:10;21.90;;;19.60;;
45802;SDS011;31504;51.716;9.184;2022-10-16T13:54:13;24.02;;;20.25;;
45802;SDS011;31504;51.716;9.184;2022-10-16T13:57:14;24.52;;;21.25;;
45802;SDS011;31504;51.716;9.184;2022-10-16T14:00:20;26.98;;;22.48;;
45802;SDS011;31504;51.716;9.184;2022-10-16T14:03:22;27.85;;;24.90;;
45802;SDS011;31504;51.716;9.184;2022-10-16T14:06:24;35.22;;;29.88;;
45802;SDS011;31504;51.716;9.184;2022-10-16T14:09:25;40.10;;;33.28;;
45802;SDS011;31504;51.716;9.184;2022-10-16T14:12:28;49.65;;;40.85;;
45802;SDS011;31504;51.716;9.184;2022-10-16T14:15:29;49.90;;;40.25;;
45802;SDS011;31504;51.716;9.184;2022-10-16T14:18:31;54.10;;;42.35;;
45802;SDS011;31504;51.716;9.184;2022-10-16T14:21:32;48.65;;;41.10;;
45802;SDS011;31504;51.716;9.184;2022-10-16T14:24:34;54.58;;;42.30;;
45802;SDS011;31504;51.716;9.184;2022-10-16T14:27:35;52.20;;;43.38;;
45802;SDS011;31504;51.716;9.184;2022-10-16T14:30:37;60.78;;;50.05;;
45802;SDS011;31504;51.716;9.184;2022-10-16T14:33:48;55.35;;;46.00;;
45802;SDS011;31504;51.716;9.184;2022-10-16T14:36:48;53.97;;;46.58;;
45802;SDS011;31504;51.716;9.184;2022-10-16T14:39:50;55.13;;;47.08;;
45802;SDS011;31504;51.716;9.184;2022-10-16T14:42:51;52.58;;;46.22;;
45802;SDS011;31504;51.716;9.184;2022-10-16T14:45:53;59.85;;;51.47;;
45802;SDS011;31504;51.716;9.184;2022-10-16T14:49:00;61.22;;;51.60;;
45802;SDS011;31504;51.716;9.184;2022-10-16T14:52:10;61.40;;;53.55;;
45802;SDS011;31504;51.716;9.184;2022-10-16T14:55:12;71.65;;;59.92;;
45802;SDS011;31504;51.716;9.184;2022-10-16T14:58:16;88.22;;;74.35;;
45802;SDS011;31504;51.716;9.184;2022-10-16T15:01:19;94.82;;;80.07;;
45802;SDS011;31504;51.716;9.184;2022-10-16T15:04:20;110.78;;;94.13;;
45802;SDS011;31504;51.716;9.184;2022-10-16T15:07:21;124.95;;;108.88;;
45802;SDS011;31504;51.716;9.184;2022-10-16T15:10:23;137.23;;;118.97;;
45802;SDS011;31504;51.716;9.184;2022-10-16T15:13:25;149.68;;;128.93;;
45802;SDS011;31504;51.716;9.184;2022-10-16T15:16:26;171.48;;;146.98;;
45802;SDS011;31504;51.716;9.184;2022-10-16T15:19:26;193.00;;;166.73;;
45802;SDS011;31504;51.716;9.184;2022-10-16T15:22:27;211.05;;;184.65;;
45802;SDS011;31504;51.716;9.184;2022-10-16T15:25:32;215.75;;;187.27;;
45802;SDS011;31504;51.716;9.184;2022-10-16T15:28:42;238.48;;;212.20;;
45802;SDS011;31504;51.716;9.184;2022-10-16T15:31:43;254.95;;;222.82;;
45802;SDS011;31504;51.716;9.184;2022-10-16T15:34:43;282.08;;;251.25;;
45802;SDS011;31504;51.716;9.184;2022-10-16T15:37:44;292.55;;;260.63;;
45802;SDS011;31504;51.716;9.184;2022-10-16T15:40:47;294.85;;;262.50;;
45802;SDS011;31504;51.716;9.184;2022-10-16T15:43:48;311.73;;;277.40;;
45802;SDS011;31504;51.716;9.184;2022-10-16T15:46:50;309.63;;;276.05;;
45802;SDS011;31504;51.716;9.184;2022-10-16T15:49:50;318.02;;;283.45;;
45802;SDS011;31504;51.716;9.184;2022-10-16T15:52:51;323.10;;;287.65;;
45802;SDS011;31504;51.716;9.184;2022-10-16T15:55:51;325.35;;;289.83;;
45802;SDS011;31504;51.716;9.184;2022-10-16T15:58:52;325.85;;;290.23;;
45802;SDS011;31504;51.716;9.184;2022-10-16T16:01:53;333.33;;;297.35;;
45802;SDS011;31504;51.716;9.184;2022-10-16T16:04:54;333.55;;;297.70;;
45802;SDS011;31504;51.716;9.184;2022-10-16T16:07:54;341.23;;;304.05;;
45802;SDS011;31504;51.716;9.184;2022-10-16T16:10:59;346.33;;;308.58;;
45802;SDS011;31504;51.716;9.184;2022-10-16T16:14:03;346.58;;;308.48;;
45802;SDS011;31504;51.716;9.184;2022-10-16T16:17:03;355.52;;;316.88;;
45802;SDS011;31504;51.716;9.184;2022-10-16T16:20:04;350.67;;;311.95;;
45802;SDS011;31504;51.716;9.184;2022-10-16T16:23:05;355.13;;;316.63;;
45802;SDS011;31504;51.716;9.184;2022-10-16T16:26:12;357.42;;;318.73;;
45802;SDS011;31504;51.716;9.184;2022-10-16T16:29:15;350.33;;;312.40;;
45802;SDS011;31504;51.716;9.184;2022-10-16T16:32:16;363.90;;;324.48;;
45802;SDS011;31504;51.716;9.184;2022-10-16T16:35:16;354.67;;;316.83;;
45802;SDS011;31504;51.716;9.184;2022-10-16T16:38:17;355.27;;;316.88;;
45802;SDS011;31504;51.716;9.184;2022-10-16T16:41:18;345.48;;;308.45;;
45802;SDS011;31504;51.716;9.184;2022-10-16T16:44:20;340.38;;;303.75;;
45802;SDS011;31504;51.716;9.184;2022-10-16T16:47:21;330.92;;;295.17;;
45802;SDS011;31504;51.716;9.184;2022-10-16T16:50:21;316.35;;;282.02;;
45802;SDS011;31504;51.716;9.184;2022-10-16T16:53:22;310.83;;;277.40;;
45802;SDS011;31504;51.716;9.184;2022-10-16T16:56:23;303.17;;;270.08;;
45802;SDS011;31504;51.716;9.184;2022-10-16T16:59:24;303.20;;;270.00;;
45802;SDS011;31504;51.716;9.184;2022-10-16T17:02:25;301.42;;;268.85;;
45802;SDS011;31504;51.716;9.184;2022-10-16T17:05:26;303.90;;;270.55;;
45802;SDS011;31504;51.716;9.184;2022-10-16T17:08:26;306.15;;;272.90;;
45802;SDS011;31504;51.716;9.184;2022-10-16T17:11:28;311.50;;;277.88;;
45802;SDS011;31504;51.716;9.184;2022-10-16T17:14:28;310.63;;;276.83;;
45802;SDS011;31504;51.716;9.184;2022-10-16T17:17:29;314.95;;;280.58;;
45802;SDS011;31504;51.716;9.184;2022-10-16T17:20:30;312.08;;;278.20;;
45802;SDS011;31504;51.716;9.184;2022-10-16T17:23:30;311.00;;;277.17;;
45802;SDS011;31504;51.716;9.184;2022-10-16T17:26:32;304.38;;;271.15;;
45802;SDS011;31504;51.716;9.184;2022-10-16T17:29:32;295.60;;;263.67;;
45802;SDS011;31504;51.716;9.184;2022-10-16T17:32:33;291.30;;;259.17;;
45802;SDS011;31504;51.716;9.184;2022-10-16T17:35:38;288.58;;;257.30;;
45802;SDS011;31504;51.716;9.184;2022-10-16T17:38:43;276.15;;;246.07;;
45802;SDS011;31504;51.716;9.184;2022-10-16T17:41:44;273.88;;;243.77;;
45802;SDS011;31504;51.716;9.184;2022-10-16T17:44:45;272.90;;;243.05;;
45802;SDS011;31504;51.716;9.184;2022-10-16T17:47:46;265.75;;;237.10;;
45802;SDS011;31504;51.716;9.184;2022-10-16T17:50:46;261.13;;;232.48;;
45802;SDS011;31504;51.716;9.184;2022-10-16T17:53:51;257.75;;;229.70;;
45802;SDS011;31504;51.716;9.184;2022-10-16T17:56:54;250.98;;;223.75;;
45802;SDS011;31504;51.716;9.184;2022-10-16T17:59:54;244.75;;;218.10;;
45802;SDS011;31504;51.716;9.184;2022-10-16T18:02:55;231.63;;;206.23;;
45802;SDS011;31504;51.716;9.184;2022-10-16T18:05:55;219.88;;;196.00;;
45802;SDS011;31504;51.716;9.184;2022-10-16T18:08:57;214.77;;;190.60;;
45802;SDS011;31504;51.716;9.184;2022-10-16T18:11:58;204.23;;;179.15;;
45802;SDS011;31504;51.716;9.184;2022-10-16T18:14:59;191.90;;;170.68;;
45802;SDS011;31504;51.716;9.184;2022-10-16T18:17:59;187.32;;;163.98;;
45802;SDS011;31504;51.716;9.184;2022-10-16T18:21:01;180.15;;;156.70;;
45802;SDS011;31504;51.716;9.184;2022-10-16T18:24:03;173.32;;;150.77;;
45802;SDS011;31504;51.716;9.184;2022-10-16T18:27:03;165.70;;;145.10;;
45802;SDS011;31504;51.716;9.184;2022-10-16T18:30:04;153.10;;;135.45;;
45802;SDS011;31504;51.716;9.184;2022-10-16T18:33:05;148.82;;;132.50;;
45802;SDS011;31504;51.716;9.184;2022-10-16T18:36:07;144.35;;;128.35;;
45802;SDS011;31504;51.716;9.184;2022-10-16T18:39:09;139.35;;;122.18;;
45802;SDS011;31504;51.716;9.184;2022-10-16T18:42:10;130.85;;;116.43;;
45802;SDS011;31504;51.716;9.184;2022-10-16T18:45:11;123.07;;;109.68;;
45802;SDS011;31504;51.716;9.184;2022-10-16T18:48:11;120.78;;;107.22;;
45802;SDS011;31504;51.716;9.184;2022-10-16T18:51:16;119.25;;;103.30;;
45802;SDS011;31504;51.716;9.184;2022-10-16T18:54:37;112.05;;;97.72;;
45802;SDS011;31504;51.716;9.184;2022-10-16T18:57:38;104.88;;;93.25;;
45802;SDS011;31504;51.716;9.184;2022-10-16T19:00:38;99.63;;;87.35;;
45802;SDS011;31504;51.716;9.184;2022-10-16T19:03:39;97.72;;;86.88;;
45802;SDS011;31504;51.716;9.184;2022-10-16T19:06:46;96.10;;;82.38;;
45802;SDS011;31504;51.716;9.184;2022-10-16T19:09:48;83.88;;;74.05;;
45802;SDS011;31504;51.716;9.184;2022-10-16T19:12:49;83.10;;;73.57;;
45802;SDS011;31504;51.716;9.184;2022-10-16T19:15:49;83.88;;;72.72;;
45802;SDS011;31504;51.716;9.184;2022-10-16T19:18:51;76.32;;;66.68;;
45802;SDS011;31504;51.716;9.184;2022-10-16T19:21:52;80.45;;;66.88;;
45802;SDS011;31504;51.716;9.184;2022-10-16T19:25:10;73.97;;;64.20;;
45802;SDS011;31504;51.716;9.184;2022-10-16T19:28:10;68.28;;;60.80;;
45802;SDS011;31504;51.716;9.184;2022-10-16T19:31:12;67.80;;;58.45;;
45802;SDS011;31504;51.716;9.184;2022-10-16T19:34:15;63.28;;;56.08;;
45802;SDS011;31504;51.716;9.184;2022-10-16T19:37:15;62.20;;;53.30;;